sensor_id;sensor_type;location;lat;lon;timestamp;pressure;altitude;pressure_sealevel;temperature;humidity
39613;BME280;25303;48.896;13.342;2023-07-20T00:02:02;92566.59;;;20.50;44.62
39613;BME280;25303;48.896;13.342;2023-07-20T00:04:48;92569.00;;;20.52;44.67
39613;BME280;25303;48.896;13.342;2023-07-20T00:07:30;92573.16;;;20.53;44.42
39613;BME280;25303;48.896;13.342;2023-07-20T00:10:13;92581.59;;;20.55;44.61
39613;BME280;25303;48.896;13.342;2023-07-20T00:12:56;92582.97;;;20.57;44.84
39613;BME280;25303;48.896;13.342;2023-07-20T00:15:39;92577.75;;;20.57;44.75
39613;BME280;25303;48.896;13.342;2023-07-20T00:18:21;92584.56;;;20.58;44.78
39613;BME280;25303;48.896;13.342;2023-07-20T00:21:05;92585.38;;;20.59;44.77
39613;BME280;25303;48.896;13.342;2023-07-20T00:23:48;92590.59;;;20.59;44.87
39613;BME280;25303;48.896;13.342;2023-07-20T00:26:31;92577.75;;;20.57;44.70
39613;BME280;25303;48.896;13.342;2023-07-20T00:29:14;92585.59;;;20.57;45.09
39613;BME280;25303;48.896;13.342;2023-07-20T00:31:56;92576.94;;;20.57;44.60
39613;BME280;25303;48.896;13.342;2023-07-20T00:34:40;92579.34;;;20.58;45.00
39613;BME280;25303;48.896;13.342;2023-07-20T00:37:24;92581.16;;;20.58;45.03
39613;BME280;25303;48.896;13.342;2023-07-20T00:40:07;92575.13;;;20.57;45.03
39613;BME280;25303;48.896;13.342;2023-07-20T00:42:50;92577.97;;;20.56;44.99
39613;BME280;25303;48.896;13.342;2023-07-20T00:45:37;92582.41;;;20.55;45.22
39613;BME280;25303;48.896;13.342;2023-07-20T00:48:20;92580.00;;;20.54;44.81
39613;BME280;25303;48.896;13.342;2023-07-20T00:51:03;92582.06;;;20.52;44.97
39613;BME280;25303;48.896;13.342;2023-07-20T00:53:47;92585.69;;;20.51;45.12
39613;BME280;25303;48.896;13.342;2023-07-20T00:56:30;92583.28;;;20.49;45.01
39613;BME280;25303;48.896;13.342;2023-07-20T00:59:13;92579.91;;;20.48;44.95
39613;BME280;25303;48.896;13.342;2023-07-20T01:01:56;92571.25;;;20.48;45.48
39613;BME280;25303;48.896;13.342;2023-07-20T01:04:39;92581.69;;;20.48;45.52
39613;BME280;25303;48.896;13.342;2023-07-20T01:07:23;92579.84;;;20.37;45.29
39613;BME280;25303;48.896;13.342;2023-07-20T01:10:10;92586.16;;;20.17;45.83
39613;BME280;25303;48.896;13.342;2023-07-20T01:12:54;92594.47;;;19.95;46.31
39613;BME280;25303;48.896;13.342;2023-07-20T01:15:37;92596.28;;;19.76;46.93
39613;BME280;25303;48.896;13.342;2023-07-20T01:18:20;92592.59;;;19.65;46.82
39613;BME280;25303;48.896;13.342;2023-07-20T01:21:04;92597.38;;;19.68;46.88
39613;BME280;25303;48.896;13.342;2023-07-20T01:23:55;92591.50;;;19.73;47.21
39613;BME280;25303;48.896;13.342;2023-07-20T01:26:47;92596.38;;;19.69;47.38
39613;BME280;25303;48.896;13.342;2023-07-20T01:29:42;92594.41;;;19.65;47.42
39613;BME280;25303;48.896;13.342;2023-07-20T01:32:30;92591.94;;;19.70;47.58
39613;BME280;25303;48.896;13.342;2023-07-20T01:35:13;92586.69;;;19.70;47.55
39613;BME280;25303;48.896;13.342;2023-07-20T01:37:57;92586.00;;;19.63;48.14
39613;BME280;25303;48.896;13.342;2023-07-20T01:40:41;92593.59;;;19.64;47.68
39613;BME280;25303;48.896;13.342;2023-07-20T01:43:24;92586.69;;;19.70;47.68
39613;BME280;25303;48.896;13.342;2023-07-20T01:46:07;92585.06;;;19.76;47.36
39613;BME280;25303;48.896;13.342;2023-07-20T01:48:51;92583.00;;;19.78;47.77
39613;BME280;25303;48.896;13.342;2023-07-20T01:51:34;92590.34;;;19.69;47.53
39613;BME280;25303;48.896;13.342;2023-07-20T01:54:17;92587.50;;;19.52;47.91
39613;BME280;25303;48.896;13.342;2023-07-20T01:57:00;92578.81;;;19.39;48.39
39613;BME280;25303;48.896;13.342;2023-07-20T01:59:42;92589.91;;;19.35;48.76
39613;BME280;25303;48.896;13.342;2023-07-20T02:02:26;92596.00;;;19.28;49.21
39613;BME280;25303;48.896;13.342;2023-07-20T02:05:10;92591.19;;;19.25;49.24
39613;BME280;25303;48.896;13.342;2023-07-20T02:07:53;92591.03;;;19.20;48.91
39613;BME280;25303;48.896;13.342;2023-07-20T02:10:36;92594.16;;;19.10;49.04
39613;BME280;25303;48.896;13.342;2023-07-20T02:13:19;92581.03;;;18.98;49.53
39613;BME280;25303;48.896;13.342;2023-07-20T02:16:02;92597.13;;;18.89;49.67
39613;BME280;25303;48.896;13.342;2023-07-20T02:18:45;92600.81;;;18.81;49.98
39613;BME280;25303;48.896;13.342;2023-07-20T02:21:29;92602.06;;;18.72;50.03
39613;BME280;25303;48.896;13.342;2023-07-20T02:24:12;92605.94;;;18.62;50.32
39613;BME280;25303;48.896;13.342;2023-07-20T02:26:55;92606.41;;;18.52;50.31
39613;BME280;25303;48.896;13.342;2023-07-20T02:29:38;92607.25;;;18.46;50.74
39613;BME280;25303;48.896;13.342;2023-07-20T02:32:21;92606.69;;;18.44;51.29
39613;BME280;25303;48.896;13.342;2023-07-20T02:35:04;92596.47;;;18.43;51.74
39613;BME280;25303;48.896;13.342;2023-07-20T02:37:49;92590.47;;;18.42;51.49
39613;BME280;25303;48.896;13.342;2023-07-20T02:40:31;92601.91;;;18.41;51.51
39613;BME280;25303;48.896;13.342;2023-07-20T02:43:14;92596.88;;;18.40;51.46
39613;BME280;25303;48.896;13.342;2023-07-20T02:45:57;92603.31;;;18.37;51.52
39613;BME280;25303;48.896;13.342;2023-07-20T02:48:40;92609.16;;;18.32;51.89
39613;BME280;25303;48.896;13.342;2023-07-20T02:51:23;92608.75;;;18.29;51.89
39613;BME280;25303;48.896;13.342;2023-07-20T02:54:07;92599.19;;;18.22;51.80
39613;BME280;25303;48.896;13.342;2023-07-20T02:56:50;92596.00;;;18.20;52.26
39613;BME280;25303;48.896;13.342;2023-07-20T02:59:32;92597.81;;;18.20;52.07
39613;BME280;25303;48.896;13.342;2023-07-20T03:02:15;92598.81;;;18.19;52.37
39613;BME280;25303;48.896;13.342;2023-07-20T03:04:58;92595.81;;;18.15;52.57
39613;BME280;25303;48.896;13.342;2023-07-20T03:07:42;92592.06;;;18.11;52.79
39613;BME280;25303;48.896;13.342;2023-07-20T03:10:26;92605.28;;;18.10;52.56
39613;BME280;25303;48.896;13.342;2023-07-20T03:13:10;92601.25;;;18.14;52.45
39613;BME280;25303;48.896;13.342;2023-07-20T03:15:54;92600.88;;;18.10;52.48
39613;BME280;25303;48.896;13.342;2023-07-20T03:18:37;92604.13;;;17.99;52.64
39613;BME280;25303;48.896;13.342;2023-07-20T03:21:21;92607.72;;;17.91;53.10
39613;BME280;25303;48.896;13.342;2023-07-20T03:24:05;92606.56;;;17.87;53.12
39613;BME280;25303;48.896;13.342;2023-07-20T03:26:49;92605.97;;;17.85;53.51
39613;BME280;25303;48.896;13.342;2023-07-20T03:29:32;92619.59;;;17.80;53.27
39613;BME280;25303;48.896;13.342;2023-07-20T03:32:15;92618.63;;;17.74;53.69
39613;BME280;25303;48.896;13.342;2023-07-20T03:34:58;92625.03;;;17.72;54.04
39613;BME280;25303;48.896;13.342;2023-07-20T03:37:41;92624.44;;;17.70;54.14
39613;BME280;25303;48.896;13.342;2023-07-20T03:40:24;92623.66;;;17.69;54.22
39613;BME280;25303;48.896;13.342;2023-07-20T03:43:09;92623.66;;;17.69;54.44
39613;BME280;25303;48.896;13.342;2023-07-20T03:45:51;92623.06;;;17.67;54.38
39613;BME280;25303;48.896;13.342;2023-07-20T03:48:35;92625.06;;;17.65;54.67
39613;BME280;25303;48.896;13.342;2023-07-20T03:51:18;92623.66;;;17.62;55.19
39613;BME280;25303;48.896;13.342;2023-07-20T03:54:00;92628.47;;;17.66;54.88
39613;BME280;25303;48.896;13.342;2023-07-20T03:56:44;92628.88;;;17.69;54.85
39613;BME280;25303;48.896;13.342;2023-07-20T03:59:28;92635.88;;;17.69;54.75
39613;BME280;25303;48.896;13.342;2023-07-20T04:02:11;92635.47;;;17.72;54.71
39613;BME280;25303;48.896;13.342;2023-07-20T04:04:56;92645.63;;;17.80;55.17
39613;BME280;25303;48.896;13.342;2023-07-20T04:07:39;92635.00;;;17.88;55.18
39613;BME280;25303;48.896;13.342;2023-07-20T04:10:22;92642.19;;;17.93;54.93
39613;BME280;25303;48.896;13.342;2023-07-20T04:13:06;92633.97;;;17.96;55.24
39613;BME280;25303;48.896;13.342;2023-07-20T04:15:53;92641.19;;;18.01;55.29
39613;BME280;25303;48.896;13.342;2023-07-20T04:18:36;92644.56;;;18.08;55.35
39613;BME280;25303;48.896;13.342;2023-07-20T04:21:19;92640.31;;;18.14;55.27
39613;BME280;25303;48.896;13.342;2023-07-20T04:24:02;92651.31;;;18.22;54.67
39613;BME280;25303;48.896;13.342;2023-07-20T04:26:46;92648.44;;;18.31;54.26
39613;BME280;25303;48.896;13.342;2023-07-20T04:29:29;92650.81;;;18.39;54.48
39613;BME280;25303;48.896;13.342;2023-07-20T04:32:13;92643.75;;;18.46;54.39
39613;BME280;25303;48.896;13.342;2023-07-20T04:34:56;92636.09;;;18.51;53.96
39613;BME280;25303;48.896;13.342;2023-07-20T04:37:39;92639.47;;;18.59;53.41
39613;BME280;25303;48.896;13.342;2023-07-20T04:40:30;92642.81;;;18.66;53.59
39613;BME280;25303;48.896;13.342;2023-07-20T04:43:13;92655.03;;;18.72;53.73
39613;BME280;25303;48.896;13.342;2023-07-20T04:45:56;92653.59;;;18.76;53.55
39613;BME280;25303;48.896;13.342;2023-07-20T04:48:42;92648.53;;;18.81;53.37
39613;BME280;25303;48.896;13.342;2023-07-20T04:51:25;92649.72;;;18.86;53.31
39613;BME280;25303;48.896;13.342;2023-07-20T04:54:09;92651.69;;;18.90;53.53
39613;BME280;25303;48.896;13.342;2023-07-20T04:56:53;92646.03;;;18.93;53.33
39613;BME280;25303;48.896;13.342;2023-07-20T04:59:36;92643.81;;;18.97;53.43
39613;BME280;25303;48.896;13.342;2023-07-20T05:02:19;92652.63;;;19.03;53.19
39613;BME280;25303;48.896;13.342;2023-07-20T05:05:05;92648.38;;;19.08;53.04
39613;BME280;25303;48.896;13.342;2023-07-20T05:07:49;92640.91;;;19.12;53.37
39613;BME280;25303;48.896;13.342;2023-07-20T05:10:32;92646.72;;;19.14;53.44
39613;BME280;25303;48.896;13.342;2023-07-20T05:13:15;92650.91;;;19.15;52.78
39613;BME280;25303;48.896;13.342;2023-07-20T05:15:57;92643.28;;;19.13;53.14
39613;BME280;25303;48.896;13.342;2023-07-20T05:18:41;92634.88;;;19.11;53.06
39613;BME280;25303;48.896;13.342;2023-07-20T05:21:25;92636.69;;;19.11;53.45
39613;BME280;25303;48.896;13.342;2023-07-20T05:24:08;92624.44;;;19.11;53.63
39613;BME280;25303;48.896;13.342;2023-07-20T05:26:51;92644.69;;;19.16;53.22
39613;BME280;25303;48.896;13.342;2023-07-20T05:29:33;92639.84;;;19.20;53.88
39613;BME280;25303;48.896;13.342;2023-07-20T05:32:16;92641.44;;;19.21;53.78
39613;BME280;25303;48.896;13.342;2023-07-20T05:34:59;92647.25;;;19.23;53.96
39613;BME280;25303;48.896;13.342;2023-07-20T05:37:43;92650.63;;;19.23;54.24
39613;BME280;25303;48.896;13.342;2023-07-20T05:40:26;92658.25;;;19.25;54.56
39613;BME280;25303;48.896;13.342;2023-07-20T05:43:09;92652.72;;;19.15;55.71
39613;BME280;25303;48.896;13.342;2023-07-20T05:45:51;92653.31;;;19.17;55.27
39613;BME280;25303;48.896;13.342;2023-07-20T05:48:35;92652.22;;;19.24;55.13
39613;BME280;25303;48.896;13.342;2023-07-20T05:51:18;92647.59;;;19.26;55.52
39613;BME280;25303;48.896;13.342;2023-07-20T05:54:02;92646.38;;;19.29;55.45
39613;BME280;25303;48.896;13.342;2023-07-20T05:56:45;92657.19;;;19.33;55.15
39613;BME280;25303;48.896;13.342;2023-07-20T05:59:28;92653.19;;;19.30;55.68
39613;BME280;25303;48.896;13.342;2023-07-20T06:02:11;92658.63;;;19.28;55.83
39613;BME280;25303;48.896;13.342;2023-07-20T06:04:54;92658.41;;;19.30;55.50
39613;BME280;25303;48.896;13.342;2023-07-20T06:07:37;92649.94;;;19.35;55.86
39613;BME280;25303;48.896;13.342;2023-07-20T06:10:21;92655.53;;;19.38;55.66
39613;BME280;25303;48.896;13.342;2023-07-20T06:13:13;92656.72;;;19.42;55.32
39613;BME280;25303;48.896;13.342;2023-07-20T06:15:55;92662.66;;;19.50;55.08
39613;BME280;25303;48.896;13.342;2023-07-20T06:18:38;92663.38;;;19.57;55.34
39613;BME280;25303;48.896;13.342;2023-07-20T06:21:21;92665.34;;;19.62;55.27
39613;BME280;25303;48.896;13.342;2023-07-20T06:24:04;92662.88;;;19.67;55.22
39613;BME280;25303;48.896;13.342;2023-07-20T06:26:47;92665.44;;;19.73;54.76
39613;BME280;25303;48.896;13.342;2023-07-20T06:29:31;92669.34;;;19.83;54.76
39613;BME280;25303;48.896;13.342;2023-07-20T06:32:14;92671.13;;;19.89;54.96
39613;BME280;25303;48.896;13.342;2023-07-20T06:34:56;92668.44;;;19.96;55.04
39613;BME280;25303;48.896;13.342;2023-07-20T06:37:39;92669.94;;;20.03;54.78
39613;BME280;25303;48.896;13.342;2023-07-20T06:40:22;92665.50;;;20.04;54.91
39613;BME280;25303;48.896;13.342;2023-07-20T06:43:07;92670.88;;;20.09;54.96
39613;BME280;25303;48.896;13.342;2023-07-20T06:45:54;92666.81;;;20.13;54.52
39613;BME280;25303;48.896;13.342;2023-07-20T06:48:37;92668.78;;;20.18;54.95
39613;BME280;25303;48.896;13.342;2023-07-20T06:51:23;92672.75;;;20.21;55.16
39613;BME280;25303;48.896;13.342;2023-07-20T06:54:07;92671.63;;;20.16;54.91
39613;BME280;25303;48.896;13.342;2023-07-20T06:56:49;92674.22;;;20.16;55.04
39613;BME280;25303;48.896;13.342;2023-07-20T06:59:35;92675.81;;;20.17;55.08
39613;BME280;25303;48.896;13.342;2023-07-20T07:02:23;92674.66;;;20.13;55.36
39613;BME280;25303;48.896;13.342;2023-07-20T07:05:06;92675.94;;;20.23;54.80
39613;BME280;25303;48.896;13.342;2023-07-20T07:07:52;92675.81;;;20.17;54.83
39613;BME280;25303;48.896;13.342;2023-07-20T07:10:35;92673.22;;;20.17;54.45
39613;BME280;25303;48.896;13.342;2023-07-20T07:13:18;92668.63;;;20.13;55.44
39613;BME280;25303;48.896;13.342;2023-07-20T07:16:01;92663.91;;;20.03;55.21
39613;BME280;25303;48.896;13.342;2023-07-20T07:18:45;92669.53;;;20.07;55.16
39613;BME280;25303;48.896;13.342;2023-07-20T07:21:28;92680.06;;;20.00;55.48
39613;BME280;25303;48.896;13.342;2023-07-20T07:24:11;92670.81;;;19.97;55.47
39613;BME280;25303;48.896;13.342;2023-07-20T07:27:00;92688.91;;;19.99;55.33
39613;BME280;25303;48.896;13.342;2023-07-20T07:29:43;92682.88;;;19.98;55.54
39613;BME280;25303;48.896;13.342;2023-07-20T07:32:26;92677.13;;;20.08;55.82
39613;BME280;25303;48.896;13.342;2023-07-20T07:35:10;92669.00;;;20.16;55.68
39613;BME280;25303;48.896;13.342;2023-07-20T07:37:53;92673.41;;;20.16;55.81
39613;BME280;25303;48.896;13.342;2023-07-20T07:40:55;92673.75;;;20.19;55.47
39613;BME280;25303;48.896;13.342;2023-07-20T07:43:38;92672.25;;;20.12;55.34
39613;BME280;25303;48.896;13.342;2023-07-20T07:46:21;92676.38;;;20.19;54.88
39613;BME280;25303;48.896;13.342;2023-07-20T07:49:04;92670.38;;;20.00;55.52
39613;BME280;25303;48.896;13.342;2023-07-20T07:51:48;92675.44;;;19.95;55.70
39613;BME280;25303;48.896;13.342;2023-07-20T07:54:31;92678.19;;;19.82;54.64
39613;BME280;25303;48.896;13.342;2023-07-20T07:57:14;92674.59;;;20.01;54.84
39613;BME280;25303;48.896;13.342;2023-07-20T07:59:56;92673.25;;;20.29;54.17
39613;BME280;25303;48.896;13.342;2023-07-20T08:02:39;92669.72;;;20.54;54.61
39613;BME280;25303;48.896;13.342;2023-07-20T08:05:22;92683.88;;;20.65;53.91
39613;BME280;25303;48.896;13.342;2023-07-20T08:08:06;92680.44;;;20.64;52.33
39613;BME280;25303;48.896;13.342;2023-07-20T08:10:52;92683.19;;;20.39;50.18
39613;BME280;25303;48.896;13.342;2023-07-20T08:13:36;92682.75;;;20.42;50.24
39613;BME280;25303;48.896;13.342;2023-07-20T08:16:19;92685.50;;;20.47;49.68
39613;BME280;25303;48.896;13.342;2023-07-20T08:19:01;92675.25;;;20.46;49.32
39613;BME280;25303;48.896;13.342;2023-07-20T08:21:45;92682.84;;;20.66;49.17
39613;BME280;25303;48.896;13.342;2023-07-20T08:24:29;92699.91;;;20.69;48.84
39613;BME280;25303;48.896;13.342;2023-07-20T08:27:12;92689.00;;;20.72;48.68
39613;BME280;25303;48.896;13.342;2023-07-20T08:29:55;92689.41;;;20.87;49.20
39613;BME280;25303;48.896;13.342;2023-07-20T08:32:40;92693.22;;;20.73;49.12
39613;BME280;25303;48.896;13.342;2023-07-20T08:35:23;92705.47;;;20.72;48.48
39613;BME280;25303;48.896;13.342;2023-07-20T08:38:06;92699.53;;;20.84;49.04
39613;BME280;25303;48.896;13.342;2023-07-20T08:40:51;92710.06;;;20.77;49.48
39613;BME280;25303;48.896;13.342;2023-07-20T08:43:35;92705.56;;;20.84;49.02
39613;BME280;25303;48.896;13.342;2023-07-20T08:46:19;92705.03;;;21.06;49.09
39613;BME280;25303;48.896;13.342;2023-07-20T08:49:03;92703.78;;;21.08;48.24
39613;BME280;25303;48.896;13.342;2023-07-20T08:51:46;92709.94;;;21.14;48.52
39613;BME280;25303;48.896;13.342;2023-07-20T08:54:29;92701.97;;;20.97;47.98
39613;BME280;25303;48.896;13.342;2023-07-20T08:57:15;92703.47;;;21.29;48.06
39613;BME280;25303;48.896;13.342;2023-07-20T08:59:59;92704.94;;;21.13;47.88
39613;BME280;25303;48.896;13.342;2023-07-20T09:02:46;92710.38;;;21.11;47.83
39613;BME280;25303;48.896;13.342;2023-07-20T09:05:29;92712.09;;;21.05;47.74
39613;BME280;25303;48.896;13.342;2023-07-20T09:08:14;92711.22;;;21.47;47.93
39613;BME280;25303;48.896;13.342;2023-07-20T09:10:57;92706.13;;;21.88;47.34
39613;BME280;25303;48.896;13.342;2023-07-20T09:13:41;92713.91;;;22.36;46.89
39613;BME280;25303;48.896;13.342;2023-07-20T09:16:24;92717.41;;;22.53;45.37
39613;BME280;25303;48.896;13.342;2023-07-20T09:19:07;92712.16;;;22.53;45.42
39613;BME280;25303;48.896;13.342;2023-07-20T09:21:51;92707.44;;;22.67;45.32
39613;BME280;25303;48.896;13.342;2023-07-20T09:24:34;92701.75;;;22.70;44.60
39613;BME280;25303;48.896;13.342;2023-07-20T09:27:18;92710.19;;;22.72;44.95
39613;BME280;25303;48.896;13.342;2023-07-20T09:30:02;92709.38;;;22.72;44.07
39613;BME280;25303;48.896;13.342;2023-07-20T09:32:47;92711.25;;;22.59;44.47
39613;BME280;25303;48.896;13.342;2023-07-20T09:35:32;92706.28;;;22.46;44.65
39613;BME280;25303;48.896;13.342;2023-07-20T09:38:24;92705.72;;;22.32;45.15
39613;BME280;25303;48.896;13.342;2023-07-20T09:41:12;92707.69;;;22.25;44.70
39613;BME280;25303;48.896;13.342;2023-07-20T09:43:58;92712.44;;;22.28;44.99
39613;BME280;25303;48.896;13.342;2023-07-20T09:47:04;92710.53;;;22.23;44.54
39613;BME280;25303;48.896;13.342;2023-07-20T09:49:48;92713.00;;;22.30;44.61
39613;BME280;25303;48.896;13.342;2023-07-20T09:52:33;92713.72;;;22.25;44.34
39613;BME280;25303;48.896;13.342;2023-07-20T09:55:19;92705.47;;;22.45;44.83
39613;BME280;25303;48.896;13.342;2023-07-20T09:58:03;92707.22;;;22.98;44.46
39613;BME280;25303;48.896;13.342;2023-07-20T10:00:48;92693.38;;;23.71;41.31
39613;BME280;25303;48.896;13.342;2023-07-20T10:03:36;92704.91;;;24.48;40.60
39613;BME280;25303;48.896;13.342;2023-07-20T10:06:20;92696.66;;;25.16;38.58
39613;BME280;25303;48.896;13.342;2023-07-20T10:09:05;92692.13;;;25.77;36.52
39613;BME280;25303;48.896;13.342;2023-07-20T10:11:49;92693.84;;;26.04;36.67
39613;BME280;25303;48.896;13.342;2023-07-20T10:14:52;92694.31;;;26.49;35.39
39613;BME280;25303;48.896;13.342;2023-07-20T10:17:40;92697.97;;;26.43;34.00
39613;BME280;25303;48.896;13.342;2023-07-20T10:20:33;92691.19;;;26.04;34.45
39613;BME280;25303;48.896;13.342;2023-07-20T10:23:18;92701.41;;;25.52;34.24
39613;BME280;25303;48.896;13.342;2023-07-20T10:26:00;92704.38;;;25.28;33.76
39613;BME280;25303;48.896;13.342;2023-07-20T10:28:43;92702.75;;;25.22;34.95
39613;BME280;25303;48.896;13.342;2023-07-20T10:31:27;92704.72;;;25.37;36.71
39613;BME280;25303;48.896;13.342;2023-07-20T10:34:11;92706.41;;;25.86;35.10
39613;BME280;25303;48.896;13.342;2023-07-20T10:36:55;92708.56;;;26.00;34.84
39613;BME280;25303;48.896;13.342;2023-07-20T10:39:38;92708.97;;;25.76;35.06
39613;BME280;25303;48.896;13.342;2023-07-20T10:42:22;92706.38;;;25.43;33.43
39613;BME280;25303;48.896;13.342;2023-07-20T10:45:06;92708.50;;;25.14;33.34
39613;BME280;25303;48.896;13.342;2023-07-20T10:47:49;92701.91;;;25.16;34.11
39613;BME280;25303;48.896;13.342;2023-07-20T10:50:32;92693.38;;;25.37;32.60
39613;BME280;25303;48.896;13.342;2023-07-20T10:53:17;92691.97;;;25.99;34.02
39613;BME280;25303;48.896;13.342;2023-07-20T10:56:11;92692.94;;;26.36;32.37
39613;BME280;25303;48.896;13.342;2023-07-20T10:58:58;92685.09;;;26.46;31.89
39613;BME280;25303;48.896;13.342;2023-07-20T11:01:41;92697.69;;;26.34;31.05
39613;BME280;25303;48.896;13.342;2023-07-20T11:04:37;92691.69;;;26.59;32.64
39613;BME280;25303;48.896;13.342;2023-07-20T11:10:19;92690.81;;;27.33;30.41
39613;BME280;25303;48.896;13.342;2023-07-20T11:16:03;92678.34;;;27.90;28.93
39613;BME280;25303;48.896;13.342;2023-07-20T11:18:47;92686.81;;;27.92;26.43
39613;BME280;25303;48.896;13.342;2023-07-20T11:21:30;92679.41;;;27.94;27.99
39613;BME280;25303;48.896;13.342;2023-07-20T11:24:32;92677.19;;;28.27;28.10
39613;BME280;25303;48.896;13.342;2023-07-20T11:27:16;92674.31;;;28.18;25.61
39613;BME280;25303;48.896;13.342;2023-07-20T11:30:00;92675.91;;;28.09;25.57
39613;BME280;25303;48.896;13.342;2023-07-20T11:32:47;92680.75;;;28.62;26.01
39613;BME280;25303;48.896;13.342;2023-07-20T11:35:30;92683.69;;;29.11;26.50
39613;BME280;25303;48.896;13.342;2023-07-20T11:38:13;92675.03;;;28.40;25.00
39613;BME280;25303;48.896;13.342;2023-07-20T11:40:56;92686.41;;;28.40;25.51
39613;BME280;25303;48.896;13.342;2023-07-20T11:43:42;92673.00;;;28.16;25.69
39613;BME280;25303;48.896;13.342;2023-07-20T11:46:24;92673.81;;;28.66;26.71
39613;BME280;25303;48.896;13.342;2023-07-20T11:49:08;92676.28;;;29.08;26.09
39613;BME280;25303;48.896;13.342;2023-07-20T11:51:51;92678.28;;;29.21;25.23
39613;BME280;25303;48.896;13.342;2023-07-20T11:54:34;92682.16;;;29.39;24.84
39613;BME280;25303;48.896;13.342;2023-07-20T11:57:17;92667.41;;;28.83;24.85
39613;BME280;25303;48.896;13.342;2023-07-20T12:00:02;92673.94;;;28.46;25.80
39613;BME280;25303;48.896;13.342;2023-07-20T12:02:50;92674.06;;;28.75;26.69
39613;BME280;25303;48.896;13.342;2023-07-20T12:05:33;92664.94;;;28.97;26.22
39613;BME280;25303;48.896;13.342;2023-07-20T12:08:37;92666.16;;;29.50;26.40
39613;BME280;25303;48.896;13.342;2023-07-20T12:11:33;92660.63;;;29.76;24.38
39613;BME280;25303;48.896;13.342;2023-07-20T12:14:16;92660.56;;;29.81;24.16
39613;BME280;25303;48.896;13.342;2023-07-20T12:17:00;92657.44;;;30.03;23.92
39613;BME280;25303;48.896;13.342;2023-07-20T12:19:43;92648.72;;;30.03;22.70
39613;BME280;25303;48.896;13.342;2023-07-20T12:22:26;92653.03;;;29.64;21.99
39613;BME280;25303;48.896;13.342;2023-07-20T12:25:09;92651.56;;;29.18;22.08
39613;BME280;25303;48.896;13.342;2023-07-20T12:27:51;92642.41;;;29.00;22.74
39613;BME280;25303;48.896;13.342;2023-07-20T12:30:34;92643.47;;;29.33;23.27
39613;BME280;25303;48.896;13.342;2023-07-20T12:33:18;92647.28;;;29.56;23.14
39613;BME280;25303;48.896;13.342;2023-07-20T12:36:01;92635.84;;;29.26;21.59
39613;BME280;25303;48.896;13.342;2023-07-20T12:38:44;92631.81;;;29.34;21.65
39613;BME280;25303;48.896;13.342;2023-07-20T12:41:27;92645.41;;;29.22;22.38
39613;BME280;25303;48.896;13.342;2023-07-20T12:44:10;92634.28;;;29.55;22.33
39613;BME280;25303;48.896;13.342;2023-07-20T12:46:52;92637.06;;;29.69;21.74
39613;BME280;25303;48.896;13.342;2023-07-20T12:49:37;92647.28;;;29.56;21.95
39613;BME280;25303;48.896;13.342;2023-07-20T12:52:20;92636.06;;;29.35;21.52
39613;BME280;25303;48.896;13.342;2023-07-20T12:55:03;92635.47;;;29.38;22.11
39613;BME280;25303;48.896;13.342;2023-07-20T12:57:46;92634.44;;;29.00;22.58
39613;BME280;25303;48.896;13.342;2023-07-20T13:00:29;92635.78;;;28.52;22.09
39613;BME280;25303;48.896;13.342;2023-07-20T13:03:12;92642.44;;;28.39;22.76
39613;BME280;25303;48.896;13.342;2023-07-20T13:06:12;92646.53;;;28.16;23.05
39613;BME280;25303;48.896;13.342;2023-07-20T13:08:58;92648.13;;;28.01;24.07
39613;BME280;25303;48.896;13.342;2023-07-20T13:11:40;92643.94;;;27.85;23.63
39613;BME280;25303;48.896;13.342;2023-07-20T13:14:23;92638.16;;;27.78;23.93
39613;BME280;25303;48.896;13.342;2023-07-20T13:17:06;92635.25;;;27.74;24.54
39613;BME280;25303;48.896;13.342;2023-07-20T13:19:50;92634.47;;;27.79;24.39
39613;BME280;25303;48.896;13.342;2023-07-20T13:22:34;92637.91;;;27.69;25.15
39613;BME280;25303;48.896;13.342;2023-07-20T13:25:17;92633.84;;;28.08;25.17
39613;BME280;25303;48.896;13.342;2023-07-20T13:28:02;92628.34;;;28.59;25.00
39613;BME280;25303;48.896;13.342;2023-07-20T13:30:45;92628.88;;;29.01;23.82
39613;BME280;25303;48.896;13.342;2023-07-20T13:33:28;92627.97;;;29.16;22.99
39613;BME280;25303;48.896;13.342;2023-07-20T13:36:16;92620.75;;;29.22;22.93
39613;BME280;25303;48.896;13.342;2023-07-20T13:39:00;92626.22;;;29.01;22.38
39613;BME280;25303;48.896;13.342;2023-07-20T13:41:44;92623.59;;;29.01;22.64
39613;BME280;25303;48.896;13.342;2023-07-20T13:44:29;92626.25;;;28.96;22.38
39613;BME280;25303;48.896;13.342;2023-07-20T13:47:11;92620.63;;;29.08;21.87
39613;BME280;25303;48.896;13.342;2023-07-20T13:49:57;92615.63;;;29.31;21.66
39613;BME280;25303;48.896;13.342;2023-07-20T13:52:43;92620.56;;;29.48;22.27
39613;BME280;25303;48.896;13.342;2023-07-20T13:55:27;92608.44;;;29.90;22.10
39613;BME280;25303;48.896;13.342;2023-07-20T13:58:12;92614.25;;;29.97;21.81
39613;BME280;25303;48.896;13.342;2023-07-20T14:00:55;92620.09;;;29.70;21.50
39613;BME280;25303;48.896;13.342;2023-07-20T14:03:38;92612.31;;;29.49;22.46
39613;BME280;25303;48.896;13.342;2023-07-20T14:06:21;92619.03;;;29.41;22.92
39613;BME280;25303;48.896;13.342;2023-07-20T14:09:07;92614.09;;;29.59;22.65
39613;BME280;25303;48.896;13.342;2023-07-20T14:11:51;92602.16;;;29.86;22.85
39613;BME280;25303;48.896;13.342;2023-07-20T14:14:37;92605.97;;;29.75;22.60
39613;BME280;25303;48.896;13.342;2023-07-20T14:17:19;92606.31;;;29.38;21.68
39613;BME280;25303;48.896;13.342;2023-07-20T14:20:02;92598.28;;;29.14;22.87
39613;BME280;25303;48.896;13.342;2023-07-20T14:23:02;92594.56;;;28.35;22.57
39613;BME280;25303;48.896;13.342;2023-07-20T14:25:45;92606.81;;;28.21;23.90